sensor_id;sensor_type;location;lat;lon;timestamp;pressure;altitude;pressure_sealevel;temperature;humidity
65756;BME280;52489;47.502;18.940;2022-12-18T00:00:42;99434.38;;;-4.43;90.82
65756;BME280;52489;47.502;18.940;2022-12-18T00:01:45;99437.44;;;-4.56;91.01
65756;BME280;52489;47.502;18.940;2022-12-18T00:02:48;99435.84;;;-4.49;90.75
65756;BME280;52489;47.502;18.940;2022-12-18T00:03:52;99436.63;;;-4.57;90.80
65756;BME280;52489;47.502;18.940;2022-12-18T00:04:55;99439.84;;;-4.54;90.94
65756;BME280;52489;47.502;18.940;2022-12-18T00:05:58;99446.84;;;-4.48;90.71
65756;BME280;52489;47.502;18.940;2022-12-18T00:07:01;99443.03;;;-4.52;90.47
65756;BME280;52489;47.502;18.940;2022-12-18T00:08:05;99444.94;;;-4.46;90.47
65756;BME280;52489;47.502;18.940;2022-12-18T00:09:11;99444.63;;;-4.60;90.61
65756;BME280;52489;47.502;18.940;2022-12-18T00:10:14;99461.59;;;-4.67;90.97
65756;BME280;52489;47.502;18.940;2022-12-18T00:11:19;99457.56;;;-4.53;90.45
65756;BME280;52489;47.502;18.940;2022-12-18T00:12:22;99451.97;;;-4.48;90.41
65756;BME280;52489;47.502;18.940;2022-12-18T00:13:27;99462.53;;;-4.43;89.95
65756;BME280;52489;47.502;18.940;2022-12-18T00:14:30;99463.62;;;-4.46;89.75
65756;BME280;52489;47.502;18.940;2022-12-18T00:15:36;99465.41;;;-4.63;90.13
65756;BME280;52489;47.502;18.940;2022-12-18T00:16:40;99468.63;;;-4.69;90.42
65756;BME280;52489;47.502;18.940;2022-12-18T00:17:45;99470.69;;;-4.72;90.84
65756;BME280;52489;47.502;18.940;2022-12-18T00:18:54;99466.56;;;-4.82;91.18
65756;BME280;52489;47.502;18.940;2022-12-18T00:19:58;99484.09;;;-4.95;91.89
65756;BME280;52489;47.502;18.940;2022-12-18T00:21:04;99475.78;;;-4.97;92.00
65756;BME280;52489;47.502;18.940;2022-12-18T00:22:07;99486.00;;;-4.97;92.29
65756;BME280;52489;47.502;18.940;2022-12-18T00:23:10;99492.72;;;-5.04;92.44
65756;BME280;52489;47.502;18.940;2022-12-18T00:24:13;99501.38;;;-5.05;92.72
65756;BME280;52489;47.502;18.940;2022-12-18T00:25:16;99495.59;;;-5.07;92.93
65756;BME280;52489;47.502;18.940;2022-12-18T00:26:24;99492.72;;;-5.04;92.90
65756;BME280;52489;47.502;18.940;2022-12-18T00:27:28;99498.63;;;-5.12;93.23
65756;BME280;52489;47.502;18.940;2022-12-18T00:28:31;99495.78;;;-5.09;93.23
65756;BME280;52489;47.502;18.940;2022-12-18T00:29:34;99504.84;;;-5.06;93.15
65756;BME280;52489;47.502;18.940;2022-12-18T00:30:37;99504.84;;;-5.06;93.26
65756;BME280;52489;47.502;18.940;2022-12-18T00:31:42;99503.59;;;-5.10;93.57
65756;BME280;52489;47.502;18.940;2022-12-18T00:32:46;99506.78;;;-5.16;93.76
65756;BME280;52489;47.502;18.940;2022-12-18T00:33:49;99506.59;;;-5.15;93.72
65756;BME280;52489;47.502;18.940;2022-12-18T00:34:56;99505.31;;;-5.19;94.12
65756;BME280;52489;47.502;18.940;2022-12-18T00:37:05;99506.28;;;-5.20;94.18
65756;BME280;52489;47.502;18.940;2022-12-18T00:38:08;99515.38;;;-5.26;94.25
65756;BME280;52489;47.502;18.940;2022-12-18T00:39:11;99511.84;;;-5.24;94.23
65756;BME280;52489;47.502;18.940;2022-12-18T00:40:14;99511.84;;;-5.24;94.33
65756;BME280;52489;47.502;18.940;2022-12-18T00:41:18;99506.59;;;-5.23;94.20
65756;BME280;52489;47.502;18.940;2022-12-18T00:42:39;99511.53;;;-5.21;94.08
65756;BME280;52489;47.502;18.940;2022-12-18T00:44:00;99506.75;;;-5.24;94.27
65756;BME280;52489;47.502;18.940;2022-12-18T00:45:03;99509.00;;;-5.21;94.26
65756;BME280;52489;47.502;18.940;2022-12-18T00:46:13;99514.75;;;-5.19;94.08
65756;BME280;52489;47.502;18.940;2022-12-18T00:47:17;99508.97;;;-5.30;93.82
65756;BME280;52489;47.502;18.940;2022-12-18T00:48:20;99509.78;;;-5.29;94.10
65756;BME280;52489;47.502;18.940;2022-12-18T00:49:23;99511.81;;;-5.33;94.13
65756;BME280;52489;47.502;18.940;2022-12-18T00:50:27;99514.88;;;-5.21;94.07
65756;BME280;52489;47.502;18.940;2022-12-18T00:51:30;99512.16;;;-5.28;93.66
65756;BME280;52489;47.502;18.940;2022-12-18T00:52:33;99513.44;;;-5.32;93.87
65756;BME280;52489;47.502;18.940;2022-12-18T00:53:36;99520.47;;;-5.34;94.07
65756;BME280;52489;47.502;18.940;2022-12-18T00:54:39;99517.56;;;-5.39;94.30
65756;BME280;52489;47.502;18.940;2022-12-18T00:55:43;99517.09;;;-5.34;94.28
65756;BME280;52489;47.502;18.940;2022-12-18T00:56:46;99521.13;;;-5.15;93.58
65756;BME280;52489;47.502;18.940;2022-12-18T00:57:51;99520.06;;;-4.96;92.48
65756;BME280;52489;47.502;18.940;2022-12-18T00:58:55;99520.22;;;-4.90;91.94
65756;BME280;52489;47.502;18.940;2022-12-18T00:59:58;99520.53;;;-4.93;91.45
65756;BME280;52489;47.502;18.940;2022-12-18T01:01:00;99530.28;;;-4.88;91.41
65756;BME280;52489;47.502;18.940;2022-12-18T01:02:04;99524.22;;;-4.87;91.08
65756;BME280;52489;47.502;18.940;2022-12-18T01:03:07;99530.91;;;-4.94;91.21
65756;BME280;52489;47.502;18.940;2022-12-18T01:04:10;99529.97;;;-4.93;91.42
65756;BME280;52489;47.502;18.940;2022-12-18T01:05:14;99535.06;;;-4.93;91.23
65756;BME280;52489;47.502;18.940;2022-12-18T01:06:17;99536.34;;;-4.97;91.09
65756;BME280;52489;47.502;18.940;2022-12-18T01:07:20;99533.66;;;-4.88;90.72
65756;BME280;52489;47.502;18.940;2022-12-18T01:08:23;99537.94;;;-4.96;90.54
65756;BME280;52489;47.502;18.940;2022-12-18T01:09:26;99540.19;;;-4.93;90.62
65756;BME280;52489;47.502;18.940;2022-12-18T01:10:29;99540.19;;;-4.85;90.26
65756;BME280;52489;47.502;18.940;2022-12-18T01:11:32;99540.81;;;-4.83;89.81
65756;BME280;52489;47.502;18.940;2022-12-18T01:12:35;99536.19;;;-4.80;89.72
65756;BME280;52489;47.502;18.940;2022-12-18T01:13:39;99537.50;;;-4.75;88.96
65756;BME280;52489;47.502;18.940;2022-12-18T01:14:43;99540.97;;;-4.76;88.77
65756;BME280;52489;47.502;18.940;2022-12-18T01:15:49;99536.37;;;-4.73;88.22
65756;BME280;52489;47.502;18.940;2022-12-18T01:16:52;99537.19;;;-4.64;87.97
65756;BME280;52489;47.502;18.940;2022-12-18T01:18:02;99547.88;;;-4.69;87.63
65756;BME280;52489;47.502;18.940;2022-12-18T01:19:05;99548.03;;;-4.70;87.74
65756;BME280;52489;47.502;18.940;2022-12-18T01:20:09;99550.75;;;-4.72;87.73
65756;BME280;52489;47.502;18.940;2022-12-18T01:21:16;99550.13;;;-4.82;88.33
65756;BME280;52489;47.502;18.940;2022-12-18T01:22:19;99551.53;;;-4.88;88.64
65756;BME280;52489;47.502;18.940;2022-12-18T01:23:22;99551.37;;;-4.86;88.62
65756;BME280;52489;47.502;18.940;2022-12-18T01:24:25;99545.63;;;-4.80;88.62
65756;BME280;52489;47.502;18.940;2022-12-18T01:25:28;99546.56;;;-4.89;88.83
65756;BME280;52489;47.502;18.940;2022-12-18T01:26:32;99552.50;;;-4.81;89.03
65756;BME280;52489;47.502;18.940;2022-12-18T01:27:35;99546.28;;;-4.70;88.61
65756;BME280;52489;47.502;18.940;2022-12-18T01:28:38;99556.50;;;-4.70;88.21
65756;BME280;52489;47.502;18.940;2022-12-18T01:29:42;99543.09;;;-4.64;88.22
65756;BME280;52489;47.502;18.940;2022-12-18T01:30:45;99559.22;;;-4.63;88.18
65756;BME280;52489;47.502;18.940;2022-12-18T01:31:48;99544.22;;;-4.58;87.92
65756;BME280;52489;47.502;18.940;2022-12-18T01:32:51;99556.34;;;-4.68;87.91
65756;BME280;52489;47.502;18.940;2022-12-18T01:33:55;99542.13;;;-4.63;87.69
65756;BME280;52489;47.502;18.940;2022-12-18T01:34:59;99553.63;;;-4.75;88.03
65756;BME280;52489;47.502;18.940;2022-12-18T01:36:02;99549.94;;;-4.81;88.11
65756;BME280;52489;47.502;18.940;2022-12-18T01:37:05;99545.16;;;-4.75;87.65
65756;BME280;52489;47.502;18.940;2022-12-18T01:38:08;99552.66;;;-4.82;87.59
65756;BME280;52489;47.502;18.940;2022-12-18T01:39:13;99546.25;;;-4.94;88.14
65756;BME280;52489;47.502;18.940;2022-12-18T01:40:16;99553.13;;;-4.87;87.94
65756;BME280;52489;47.502;18.940;2022-12-18T01:41:22;99553.78;;;-4.85;88.09
65756;BME280;52489;47.502;18.940;2022-12-18T01:42:25;99548.34;;;-4.90;88.25
65756;BME280;52489;47.502;18.940;2022-12-18T01:43:41;99557.28;;;-4.77;87.89
65756;BME280;52489;47.502;18.940;2022-12-18T01:45:05;99553.28;;;-4.96;87.93
65756;BME280;52489;47.502;18.940;2022-12-18T01:46:09;99557.56;;;-4.97;88.25
65756;BME280;52489;47.502;18.940;2022-12-18T01:47:21;99561.56;;;-5.03;87.91
65756;BME280;52489;47.502;18.940;2022-12-18T01:48:26;99562.53;;;-4.95;87.89
65756;BME280;52489;47.502;18.940;2022-12-18T01:49:29;99570.34;;;-5.05;87.67
65756;BME280;52489;47.502;18.940;2022-12-18T01:50:36;99558.03;;;-5.10;87.85
65756;BME280;52489;47.502;18.940;2022-12-18T01:51:41;99569.56;;;-5.06;88.06
65756;BME280;52489;47.502;18.940;2022-12-18T01:52:52;99572.56;;;-5.10;88.16
65756;BME280;52489;47.502;18.940;2022-12-18T01:53:57;99569.53;;;-5.14;88.35
65756;BME280;52489;47.502;18.940;2022-12-18T01:55:04;99565.03;;;-5.12;88.41
65756;BME280;52489;47.502;18.940;2022-12-18T01:56:08;99565.87;;;-5.11;88.40
65756;BME280;52489;47.502;18.940;2022-12-18T01:57:15;99563.78;;;-5.16;88.58
65756;BME280;52489;47.502;18.940;2022-12-18T01:58:20;99567.47;;;-5.10;88.60
65756;BME280;52489;47.502;18.940;2022-12-18T01:59:26;99573.03;;;-5.15;88.87
65756;BME280;52489;47.502;18.940;2022-12-18T02:00:30;99566.97;;;-5.14;89.07
65756;BME280;52489;47.502;18.940;2022-12-18T02:01:33;99566.31;;;-5.16;89.10
65756;BME280;52489;47.502;18.940;2022-12-18T02:02:37;99565.78;;;-5.36;89.93
65756;BME280;52489;47.502;18.940;2022-12-18T02:03:44;99569.94;;;-5.35;90.42
65756;BME280;52489;47.502;18.940;2022-12-18T02:04:48;99566.87;;;-5.46;90.98
65756;BME280;52489;47.502;18.940;2022-12-18T02:06:13;99571.41;;;-5.32;90.97
65756;BME280;52489;47.502;18.940;2022-12-18T02:07:42;99567.13;;;-5.23;90.38
65756;BME280;52489;47.502;18.940;2022-12-18T02:09:05;99574.59;;;-5.22;89.83
65756;BME280;52489;47.502;18.940;2022-12-18T02:10:27;99580.69;;;-5.15;89.50
65756;BME280;52489;47.502;18.940;2022-12-18T02:14:25;99587.25;;;-5.20;89.19
65756;BME280;52489;47.502;18.940;2022-12-18T02:18:11;99583.88;;;-5.21;89.47
65756;BME280;52489;47.502;18.940;2022-12-18T02:20:40;99581.03;;;-5.10;89.33
65756;BME280;52489;47.502;18.940;2022-12-18T02:21:57;99589.69;;;-5.03;89.01
65756;BME280;52489;47.502;18.940;2022-12-18T02:23:29;99590.16;;;-4.99;88.35
65756;BME280;52489;47.502;18.940;2022-12-18T02:25:12;99589.50;;;-5.09;89.10
65756;BME280;52489;47.502;18.940;2022-12-18T02:27:21;99596.56;;;-4.95;88.34
65756;BME280;52489;47.502;18.940;2022-12-18T02:28:28;99591.63;;;-4.96;87.77
65756;BME280;52489;47.502;18.940;2022-12-18T02:30:40;99599.44;;;-4.98;87.70
65756;BME280;52489;47.502;18.940;2022-12-18T02:31:51;99607.19;;;-5.16;88.08
65756;BME280;52489;47.502;18.940;2022-12-18T02:32:55;99605.13;;;-5.12;88.10
65756;BME280;52489;47.502;18.940;2022-12-18T02:34:02;99605.31;;;-5.14;87.97
65756;BME280;52489;47.502;18.940;2022-12-18T02:35:13;99608.19;;;-5.09;87.41
65756;BME280;52489;47.502;18.940;2022-12-18T02:36:18;99608.88;;;-5.33;88.00
65756;BME280;52489;47.502;18.940;2022-12-18T02:37:24;99617.06;;;-5.21;87.85
65756;BME280;52489;47.502;18.940;2022-12-18T02:38:30;99611.81;;;-5.19;87.57
65756;BME280;52489;47.502;18.940;2022-12-18T02:39:35;99604.19;;;-5.11;87.39
65756;BME280;52489;47.502;18.940;2022-12-18T02:40:40;99611.03;;;-5.20;87.62
65756;BME280;52489;47.502;18.940;2022-12-18T02:41:45;99609.88;;;-5.26;87.78
65756;BME280;52489;47.502;18.940;2022-12-18T02:42:48;99611.00;;;-5.28;88.16
65756;BME280;52489;47.502;18.940;2022-12-18T02:44:06;99613.69;;;-5.38;88.49
65756;BME280;52489;47.502;18.940;2022-12-18T02:45:10;99615.41;;;-5.38;88.77
65756;BME280;52489;47.502;18.940;2022-12-18T02:47:37;99612.78;;;-5.12;87.57
65756;BME280;52489;47.502;18.940;2022-12-18T02:48:41;99616.44;;;-5.23;87.60
65756;BME280;52489;47.502;18.940;2022-12-18T02:51:25;99610.47;;;-5.40;88.45
65756;BME280;52489;47.502;18.940;2022-12-18T02:52:45;99616.06;;;-5.36;87.90
65756;BME280;52489;47.502;18.940;2022-12-18T02:54:10;99615.88;;;-5.43;88.19
65756;BME280;52489;47.502;18.940;2022-12-18T02:56:38;99609.88;;;-5.26;87.46
65756;BME280;52489;47.502;18.940;2022-12-18T02:58:20;99622.47;;;-5.32;87.36
65756;BME280;52489;47.502;18.940;2022-12-18T02:59:33;99617.34;;;-5.40;87.94
65756;BME280;52489;47.502;18.940;2022-12-18T03:00:53;99620.22;;;-5.35;87.99
65756;BME280;52489;47.502;18.940;2022-12-18T03:04:44;99626.28;;;-5.36;87.88
65756;BME280;52489;47.502;18.940;2022-12-18T03:05:55;99630.59;;;-5.37;87.97
65756;BME280;52489;47.502;18.940;2022-12-18T03:07:03;99626.16;;;-5.27;87.67
65756;BME280;52489;47.502;18.940;2022-12-18T03:08:15;99626.50;;;-5.21;87.74
65756;BME280;52489;47.502;18.940;2022-12-18T03:09:28;99626.97;;;-5.26;87.71
65756;BME280;52489;47.502;18.940;2022-12-18T03:10:39;99632.34;;;-5.37;88.20
65756;BME280;52489;47.502;18.940;2022-12-18T03:11:50;99628.00;;;-5.45;88.66
65756;BME280;52489;47.502;18.940;2022-12-18T03:13:20;99635.56;;;-5.27;88.16
65756;BME280;52489;47.502;18.940;2022-12-18T03:14:26;99632.47;;;-5.47;88.42
65756;BME280;52489;47.502;18.940;2022-12-18T03:15:52;99638.13;;;-5.35;88.26
65756;BME280;52489;47.502;18.940;2022-12-18T03:17:02;99639.44;;;-5.23;87.75
65756;BME280;52489;47.502;18.940;2022-12-18T03:18:12;99641.78;;;-5.30;87.75
65756;BME280;52489;47.502;18.940;2022-12-18T03:19:21;99641.81;;;-5.21;87.28
65756;BME280;52489;47.502;18.940;2022-12-18T03:20:27;99640.03;;;-5.63;88.09
65756;BME280;52489;47.502;18.940;2022-12-18T03:21:45;99637.28;;;-5.36;88.02
65756;BME280;52489;47.502;18.940;2022-12-18T03:22:55;99647.00;;;-5.39;87.99
65756;BME280;52489;47.502;18.940;2022-12-18T03:24:00;99646.56;;;-5.35;88.17
65756;BME280;52489;47.502;18.940;2022-12-18T03:25:10;99641.25;;;-5.41;88.52
65756;BME280;52489;47.502;18.940;2022-12-18T03:26:21;99646.16;;;-5.48;88.71
65756;BME280;52489;47.502;18.940;2022-12-18T03:27:26;99644.53;;;-5.57;89.25
65756;BME280;52489;47.502;18.940;2022-12-18T03:28:32;99654.00;;;-5.50;89.37
65756;BME280;52489;47.502;18.940;2022-12-18T03:29:50;99654.84;;;-5.41;89.26
65756;BME280;52489;47.502;18.940;2022-12-18T03:30:57;99646.47;;;-5.51;89.24
65756;BME280;52489;47.502;18.940;2022-12-18T03:32:06;99659.06;;;-5.58;89.46
65756;BME280;52489;47.502;18.940;2022-12-18T03:33:33;99660.56;;;-5.39;89.12
65756;BME280;52489;47.502;18.940;2022-12-18T03:34:40;99664.59;;;-5.36;88.82
65756;BME280;52489;47.502;18.940;2022-12-18T03:35:44;99668.06;;;-5.45;89.08
65756;BME280;52489;47.502;18.940;2022-12-18T03:36:47;99665.97;;;-5.50;89.46
65756;BME280;52489;47.502;18.940;2022-12-18T03:37:50;99666.91;;;-5.51;89.61
65756;BME280;52489;47.502;18.940;2022-12-18T03:38:53;99669.50;;;-5.43;89.20
65756;BME280;52489;47.502;18.940;2022-12-18T03:39:57;99673.87;;;-5.27;88.67
65756;BME280;52489;47.502;18.940;2022-12-18T03:41:11;99670.41;;;-5.18;87.61
65756;BME280;52489;47.502;18.940;2022-12-18T03:42:32;99670.59;;;-5.19;87.64
65756;BME280;52489;47.502;18.940;2022-12-18T03:43:41;99677.16;;;-5.17;86.95
65756;BME280;52489;47.502;18.940;2022-12-18T03:45:02;99684.91;;;-5.27;87.58
65756;BME280;52489;47.502;18.940;2022-12-18T03:47:16;99678.06;;;-5.26;87.96
65756;BME280;52489;47.502;18.940;2022-12-18T03:48:07;99682.66;;;-5.30;88.17
65756;BME280;52489;47.502;18.940;2022-12-18T03:49:33;99681.72;;;-5.29;88.55
65756;BME280;52489;47.502;18.940;2022-12-18T03:50:48;99687.97;;;-5.23;88.24
65756;BME280;52489;47.502;18.940;2022-12-18T03:52:06;99687.63;;;-5.28;87.45
65756;BME280;52489;47.502;18.940;2022-12-18T03:54:55;99685.31;;;-5.39;87.48
65756;BME280;52489;47.502;18.940;2022-12-18T03:56:00;99687.31;;;-5.51;88.29
65756;BME280;52489;47.502;18.940;2022-12-18T03:57:09;99674.41;;;-5.50;88.54
65756;BME280;52489;47.502;18.940;2022-12-18T03:58:18;99678.69;;;-5.58;88.97
65756;BME280;52489;47.502;18.940;2022-12-18T03:59:23;99678.22;;;-5.54;88.71
65756;BME280;52489;47.502;18.940;2022-12-18T04:00:28;99684.41;;;-5.56;88.60
65756;BME280;52489;47.502;18.940;2022-12-18T04:01:35;99684.59;;;-5.58;88.80
65756;BME280;52489;47.502;18.940;2022-12-18T04:03:01;99691.53;;;-5.42;88.45
65756;BME280;52489;47.502;18.940;2022-12-18T04:04:05;99697.44;;;-5.41;87.71
65756;BME280;52489;47.502;18.940;2022-12-18T04:05:10;99700.41;;;-5.28;87.38
65756;BME280;52489;47.502;18.940;2022-12-18T04:06:14;99698.81;;;-5.29;86.85
65756;BME280;52489;47.502;18.940;2022-12-18T04:07:20;99696.03;;;-5.36;87.00
65756;BME280;52489;47.502;18.940;2022-12-18T04:08:24;99693.09;;;-5.49;87.43
65756;BME280;52489;47.502;18.940;2022-12-18T04:09:30;99699.97;;;-5.50;87.80
65756;BME280;52489;47.502;18.940;2022-12-18T04:10:35;99701.59;;;-5.40;87.71
65756;BME280;52489;47.502;18.940;2022-12-18T04:11:40;99692.31;;;-5.41;87.51
65756;BME280;52489;47.502;18.940;2022-12-18T04:12:43;99695.22;;;-5.36;87.39
65756;BME280;52489;47.502;18.940;2022-12-18T04:13:46;99702.66;;;-5.25;87.10
65756;BME280;52489;47.502;18.940;2022-12-18T04:14:49;99700.09;;;-5.25;86.76
65756;BME280;52489;47.502;18.940;2022-12-18T04:15:52;99699.53;;;-5.37;87.05
65756;BME280;52489;47.502;18.940;2022-12-18T04:16:56;99693.78;;;-5.39;86.88
65756;BME280;52489;47.502;18.940;2022-12-18T04:17:59;99696.13;;;-5.45;86.97
65756;BME280;52489;47.502;18.940;2022-12-18T04:19:02;99698.00;;;-5.56;87.64
65756;BME280;52489;47.502;18.940;2022-12-18T04:20:06;99698.31;;;-5.59;87.73
65756;BME280;52489;47.502;18.940;2022-12-18T04:21:09;99702.44;;;-5.58;87.83
65756;BME280;52489;47.502;18.940;2022-12-18T04:22:13;99703.72;;;-5.62;87.71
65756;BME280;52489;47.502;18.940;2022-12-18T04:23:16;99702.88;;;-5.62;87.97
65756;BME280;52489;47.502;18.940;2022-12-18T04:24:19;99697.94;;;-5.64;87.63
65756;BME280;52489;47.502;18.940;2022-12-18T04:25:22;99702.84;;;-5.70;87.87
65756;BME280;52489;47.502;18.940;2022-12-18T04:26:25;99706.50;;;-5.73;88.42
65756;BME280;52489;47.502;18.940;2022-12-18T04:27:28;99700.34;;;-5.62;88.20
65756;BME280;52489;47.502;18.940;2022-12-18T04:28:32;99707.69;;;-5.59;87.67
65756;BME280;52489;47.502;18.940;2022-12-18T04:29:35;99708.22;;;-5.56;87.66
65756;BME280;52489;47.502;18.940;2022-12-18T04:30:38;99703.59;;;-5.52;86.95
65756;BME280;52489;47.502;18.940;2022-12-18T04:31:41;99707.25;;;-5.55;86.91
65756;BME280;52489;47.502;18.940;2022-12-18T04:32:44;99709.81;;;-5.55;86.93
65756;BME280;52489;47.502;18.940;2022-12-18T04:33:53;99709.09;;;-5.65;86.97
65756;BME280;52489;47.502;18.940;2022-12-18T04:34:56;99706.09;;;-5.60;87.02
65756;BME280;52489;47.502;18.940;2022-12-18T04:35:59;99713.56;;;-5.67;87.10
65756;BME280;52489;47.502;18.940;2022-12-18T04:37:02;99705.91;;;-5.67;87.03
65756;BME280;52489;47.502;18.940;2022-12-18T04:38:08;99721.16;;;-5.75;86.88
65756;BME280;52489;47.502;18.940;2022-12-18T04:39:12;99714.94;;;-5.73;86.93
65756;BME280;52489;47.502;18.940;2022-12-18T04:40:15;99713.63;;;-5.59;86.82
65756;BME280;52489;47.502;18.940;2022-12-18T04:41:18;99716.00;;;-5.57;86.38
65756;BME280;52489;47.502;18.940;2022-12-18T04:42:21;99721.44;;;-5.78;86.61
65756;BME280;52489;47.502;18.940;2022-12-18T04:43:24;99716.09;;;-5.93;87.76
65756;BME280;52489;47.502;18.940;2022-12-18T04:44:27;99719.84;;;-5.79;87.37
65756;BME280;52489;47.502;18.940;2022-12-18T04:45:31;99723.19;;;-5.79;87.23
65756;BME280;52489;47.502;18.940;2022-12-18T04:46:34;99731.00;;;-5.80;87.41
65756;BME280;52489;47.502;18.940;2022-12-18T04:47:37;99730.19;;;-5.81;87.72
65756;BME280;52489;47.502;18.940;2022-12-18T04:48:40;99734.44;;;-5.89;88.03
65756;BME280;52489;47.502;18.940;2022-12-18T04:49:43;99734.37;;;-5.98;88.36
65756;BME280;52489;47.502;18.940;2022-12-18T04:50:47;99738.97;;;-6.01;88.97
65756;BME280;52489;47.502;18.940;2022-12-18T04:51:50;99738.69;;;-5.98;89.12
65756;BME280;52489;47.502;18.940;2022-12-18T04:52:54;99735.59;;;-5.84;88.66
65756;BME280;52489;47.502;18.940;2022-12-18T04:53:57;99734.50;;;-5.81;87.88
65756;BME280;52489;47.502;18.940;2022-12-18T04:55:00;99741.56;;;-5.75;87.87
65756;BME280;52489;47.502;18.940;2022-12-18T04:56:09;99741.63;;;-5.67;87.31
65756;BME280;52489;47.502;18.940;2022-12-18T04:57:12;99742.81;;;-5.79;87.33
65756;BME280;52489;47.502;18.940;2022-12-18T04:58:16;99748.22;;;-5.82;87.51
65756;BME280;52489;47.502;18.940;2022-12-18T04:59:19;99743.50;;;-5.95;87.82
65756;BME280;52489;47.502;18.940;2022-12-18T05:00:22;99746.09;;;-5.87;88.22
65756;BME280;52489;47.502;18.940;2022-12-18T05:01:25;99743.63;;;-5.79;87.81
65756;BME280;52489;47.502;18.940;2022-12-18T05:02:35;99748.16;;;-5.90;87.54
65756;BME280;52489;47.502;18.940;2022-12-18T05:03:38;99747.00;;;-5.96;87.72
65756;BME280;52489;47.502;18.940;2022-12-18T05:04:42;99753.25;;;-5.90;87.95
65756;BME280;52489;47.502;18.940;2022-12-18T05:05:45;99752.00;;;-5.86;87.63
65756;BME280;52489;47.502;18.940;2022-12-18T05:06:51;99752.44;;;-5.73;87.19
65756;BME280;52489;47.502;18.940;2022-12-18T05:07:54;99757.47;;;-5.81;87.26
65756;BME280;52489;47.502;18.940;2022-12-18T05:08:57;99757.06;;;-5.95;87.92
65756;BME280;52489;47.502;18.940;2022-12-18T05:10:00;99753.53;;;-5.76;87.49
65756;BME280;52489;47.502;18.940;2022-12-18T05:11:06;99756.28;;;-5.69;86.84
65756;BME280;52489;47.502;18.940;2022-12-18T05:12:10;99762.06;;;-5.85;87.18
65756;BME280;52489;47.502;18.940;2022-12-18T05:13:13;99758.56;;;-5.84;87.55
65756;BME280;52489;47.502;18.940;2022-12-18T05:14:16;99764.53;;;-5.75;87.17
65756;BME280;52489;47.502;18.940;2022-12-18T05:15:19;99758.94;;;-5.79;87.35
65756;BME280;52489;47.502;18.940;2022-12-18T05:16:22;99765.13;;;-5.81;87.67
65756;BME280;52489;47.502;18.940;2022-12-18T05:17:25;99758.06;;;-5.87;88.25
65756;BME280;52489;47.502;18.940;2022-12-18T05:18:28;99755.94;;;-5.92;88.89
65756;BME280;52489;47.502;18.940;2022-12-18T05:19:32;99761.56;;;-5.88;89.08
65756;BME280;52489;47.502;18.940;2022-12-18T05:20:34;99757.87;;;-5.94;89.30
65756;BME280;52489;47.502;18.940;2022-12-18T05:21:37;99759.94;;;-5.89;89.53
65756;BME280;52489;47.502;18.940;2022-12-18T05:22:40;99758.84;;;-5.87;89.51
65756;BME280;52489;47.502;18.940;2022-12-18T05:23:43;99765.06;;;-5.89;89.82
65756;BME280;52489;47.502;18.940;2022-12-18T05:24:46;99762.28;;;-5.78;89.36
65756;BME280;52489;47.502;18.940;2022-12-18T05:25:58;99768.56;;;-5.73;88.55
65756;BME280;52489;47.502;18.940;2022-12-18T05:27:01;99768.56;;;-5.73;88.35
65756;BME280;52489;47.502;18.940;2022-12-18T05:28:04;99766.50;;;-5.69;88.15
65756;BME280;52489;47.502;18.940;2022-12-18T05:29:07;99773.66;;;-5.55;87.56
65756;BME280;52489;47.502;18.940;2022-12-18T05:30:11;99767.75;;;-5.55;87.20
65756;BME280;52489;47.502;18.940;2022-12-18T05:31:14;99771.22;;;-5.56;87.27
65756;BME280;52489;47.502;18.940;2022-12-18T05:32:17;99763.94;;;-5.51;87.01
65756;BME280;52489;47.502;18.940;2022-12-18T05:33:22;99763.88;;;-5.77;87.22
65756;BME280;52489;47.502;18.940;2022-12-18T05:34:26;99768.69;;;-5.74;87.75
65756;BME280;52489;47.502;18.940;2022-12-18T05:35:28;99771.63;;;-5.69;87.82
65756;BME280;52489;47.502;18.940;2022-12-18T05:36:32;99776.31;;;-5.82;88.00
65756;BME280;52489;47.502;18.940;2022-12-18T05:37:35;99770.53;;;-5.84;88.56
65756;BME280;52489;47.502;18.940;2022-12-18T05:38:44;99774.16;;;-5.69;88.69
65756;BME280;52489;47.502;18.940;2022-12-18T05:39:47;99779.13;;;-5.67;88.26
65756;BME280;52489;47.502;18.940;2022-12-18T05:40:51;99770.09;;;-5.62;87.82
65756;BME280;52489;47.502;18.940;2022-12-18T05:41:54;99777.63;;;-5.96;88.32
65756;BME280;52489;47.502;18.940;2022-12-18T05:42:57;99778.03;;;-6.19;89.66
65756;BME280;52489;47.502;18.940;2022-12-18T05:44:00;99781.41;;;-5.82;89.02
65756;BME280;52489;47.502;18.940;2022-12-18T05:45:04;99779.47;;;-5.80;89.12
65756;BME280;52489;47.502;18.940;2022-12-18T05:46:12;99786.84;;;-5.77;89.22
65756;BME280;52489;47.502;18.940;2022-12-18T05:47:17;99782.03;;;-5.80;89.34
65756;BME280;52489;47.502;18.940;2022-12-18T05:48:20;99788.69;;;-5.87;89.90
65756;BME280;52489;47.502;18.940;2022-12-18T05:49:23;99790.56;;;-5.89;90.13
65756;BME280;52489;47.502;18.940;2022-12-18T05:50:26;99789.78;;;-5.90;90.07
65756;BME280;52489;47.502;18.940;2022-12-18T05:51:29;99790.88;;;-5.92;90.17
65756;BME280;52489;47.502;18.940;2022-12-18T05:52:32;99791.97;;;-5.95;90.31
65756;BME280;52489;47.502;18.940;2022-12-18T05:53:36;99790.16;;;-5.85;90.36
65756;BME280;52489;47.502;18.940;2022-12-18T05:54:39;99792.19;;;-5.88;90.35
65756;BME280;52489;47.502;18.940;2022-12-18T05:55:43;99793.78;;;-5.87;90.20
65756;BME280;52489;47.502;18.940;2022-12-18T05:56:47;99795.75;;;-5.81;90.02
65756;BME280;52489;47.502;18.940;2022-12-18T05:57:50;99799.91;;;-5.80;89.60
65756;BME280;52489;47.502;18.940;2022-12-18T05:58:53;99798.59;;;-5.66;89.47
65756;BME280;52489;47.502;18.940;2022-12-18T05:59:57;99794.50;;;-5.59;89.16
65756;BME280;52489;47.502;18.940;2022-12-18T06:01:15;99800.56;;;-5.60;89.39
65756;BME280;52489;47.502;18.940;2022-12-18T06:02:18;99797.34;;;-5.62;89.28
65756;BME280;52489;47.502;18.940;2022-12-18T06:03:24;99793.88;;;-5.61;89.03
65756;BME280;52489;47.502;18.940;2022-12-18T06:04:35;99801.34;;;-5.60;88.72
65756;BME280;52489;47.502;18.940;2022-12-18T06:05:41;99793.56;;;-5.58;88.28
65756;BME280;52489;47.502;18.940;2022-12-18T06:06:44;99797.88;;;-5.59;87.88